Fox Island, Washington
Current Conditions -  °F | °C
As of 7:53 PM on Thursday 18 Dec 2014 (Local Time) from KTIW Reporting Station
Light Rain Light Rain  
Wind Chill: 50°   Ceiling: 7000
Heat Index: 50°   Visibility: 10mi
Dew Point: 44°   Wind: 9mph
Humidity: 80%   Direction: 150°SSE
Pressure: 29.72"   Gusts: NA
Location:  47.25°N, 122.63°W
Report Text: KTIW 190353Z 15008KT 10SM -RA SCT044 SCT055 OVC070 10/07 A2972 RMK AO2 SLP065 P0005 T01000067
Loading
Personal Weather Stations






























Interactive Weather Map New forecast layout! Learn more

10-Day Weather Forecast

Advertisements
Track Severe Weather on mobile